Latest Weather Observations for Wyndham Airport

IDW60801

Issued at 6:23 am WST Wednesday 8 December 2021 (issued every 10 minutes, with the page automatically refreshed every 10 minutes)

About weather observations | Map of weather stations | Latest weather observations for WA | Other Formats
Station Details ID: 001006 Name: WYNDHAM AERO Lat: -15.51 Lon: 128.15 Height: 3.8 m
Data from the previous 72 hours. | See also: Recent months at Wyndham Airport
Date/Time
WST
Temp
°C
App
Temp
°C
Dew
Point
°C
Rel
Hum
%
Delta-T
°C
Wind Press
QNH
hPa
Press
MSL
hPa
Rain since
9am
mm
Dir  Spd
km/h
Gust
km/h
Spd
kts
Gust
kts
08/06:00am 26.4 29.5 23.5 84 2.0 SE 13 15 7 8 1008.4 1008.4 32.4
08/05:30am 26.0 30.0 23.7 87 1.6 S 9 13 5 7 1007.9 1007.9 32.4
08/05:00am 26.3 29.8 24.2 88 1.5 WNW 13 17 7 9 1007.0 1007.0 32.4
08/04:30am 26.1 29.4 23.2 84 2.0 SSW 11 13 6 7 1007.1 1007.1 32.4
08/04:00am 26.2 29.8 23.1 83 2.1 ESE 9 11 5 6 1007.1 1007.1 32.4
08/03:30am 26.5 30.1 23.0 81 2.4 ESE 9 15 5 8 1007.3 1007.3 32.4
08/03:00am 26.3 30.0 22.6 80 2.5 NE 7 20 4 11 1007.5 1007.5 32.4
08/02:30am 26.2 29.4 23.1 83 2.1 ESE 11 17 6 9 1007.8 1007.8 32.4
08/02:00am 25.6 29.9 23.3 87 1.6 NE 6 9 3 5 1007.4 1007.4 32.2
08/01:30am 24.5 26.8 22.8 90 1.1 N 15 20 8 11 1007.2 1007.2 32.2
08/01:15am 24.5 25.1 22.8 90 1.1 N 24 33 13 18 1007.8 1007.8 32.2
08/01:00am 24.2 24.0 22.8 92 0.9 N 28 35 15 19 1008.2 1008.2 32.2
08/12:30am 23.9 22.5 22.0 89 1.3 N 32 41 17 22 1008.4 1008.4 22.8
08/12:00am 26.1 28.5 23.6 86 1.7 E 17 28 9 15 1008.8 1008.8 11.0
 
Date/Time
WST
Temp
°C
App
Temp
°C
Dew
Point
°C
Rel
Hum
%
Delta-T
°C
Wind Press
QNH
hPa
Press
MSL
hPa
Rain since
9am
mm
Dir  Spd
km/h
Gust
km/h
Spd
kts
Gust
kts
07/11:51pm 28.7 32.2 25.5 83 2.3 NE 17 22 9 12 1008.7 1008.7 1.6
07/11:30pm 30.4 34.8 25.7 76 3.3 N 13 19 7 10 1008.3 1008.3 0.0
07/11:00pm 30.8 36.1 25.8 74 3.6 NE 9 15 5 8 1009.0 1009.0 0.0
07/10:30pm 31.0 36.3 25.8 74 3.7 NE 9 15 5 8 1009.2 1009.2 0.0
07/10:00pm 31.0 35.0 25.1 71 4.2 NNE 13 20 7 11 1008.7 1008.7 0.0
07/09:30pm 31.1 34.1 25.2 71 4.2 NNE 19 28 10 15 1008.2 1008.2 0.0
07/09:00pm 31.1 33.5 25.2 71 4.2 NNE 22 30 12 16 1008.0 1008.0 0.0
07/08:30pm 31.2 31.7 24.6 68 4.6 NNE 30 37 16 20 1007.4 1007.4 0.0
07/08:00pm 31.3 31.3 24.4 66 4.8 NNE 32 43 17 23 1006.4 1006.4 0.0
07/07:30pm 31.9 31.4 22.9 59 6.2 N 30 39 16 21 1006.1 1006.1 0.0
07/07:00pm 32.5 31.8 21.0 50 7.7 N 26 35 14 19 1005.6 1005.6 0.0
07/06:30pm 32.7 32.8 21.9 53 7.3 NNE 24 33 13 18 1005.5 1005.5 0.0
07/06:00pm 32.9 31.7 22.7 55 7.0 NNE 33 41 18 22 1005.0 1005.0 0.0
07/05:30pm 34.0 34.5 21.1 47 8.7 NNE 20 33 11 18 1004.6 1004.6 0.0
07/05:00pm 34.9 34.7 21.2 44 9.3 N 24 35 13 19 1003.6 1003.6 0.0
07/04:30pm 35.8 34.6 20.9 42 10.1 NNE 28 39 15 21 1003.4 1003.4 0.0
07/04:00pm 36.5 34.5 20.7 39 10.7 N 32 39 17 21 1003.2 1003.2 0.0
07/03:30pm 37.3 36.8 21.4 39 10.9 N 26 35 14 19 1003.0 1003.0 0.0
07/03:00pm 37.4 36.5 21.5 39 10.9 N 28 37 15 20 1003.0 1003.0 0.0
07/02:30pm 38.3 39.4 22.3 39 11.1 NNE 20 32 11 17 1003.2 1003.2 0.0
07/02:00pm 37.8 38.3 21.9 40 11.0 N 22 30 12 16 1003.5 1003.5 0.0
07/01:30pm 38.8 41.0 21.9 37 11.7 N 13 24 7 13 1003.9 1003.9 0.0
07/01:00pm 38.0 40.1 22.4 40 10.8 NNE 15 32 8 17 1004.4 1004.4 0.0
07/12:30pm 38.6 40.6 23.0 40 10.9 NNE 17 35 9 19 1004.8 1004.8 0.0
07/12:00pm 37.6 38.6 21.7 39 10.9 NNE 19 30 10 16 1005.1 1005.1 0.0
07/11:30am 37.0 40.2 22.3 42 10.1 NNE 9 20 5 11 1005.6 1005.6 0.0
07/11:00am 37.1 39.5 21.6 40 10.6 NW 11 19 6 10 1006.1 1006.1 0.0
07/10:30am 34.9 37.6 22.2 47 8.7 SSE 11 17 6 9 1006.5 1006.5 0.0
07/10:00am 35.1 37.6 22.4 47 8.8 WSW 13 17 7 9 1006.8 1006.8 0.0
07/09:30am 33.7 36.8 21.5 49 8.3 WSW 7 13 4 7 1007.0 1007.0 0.0
07/09:00am 33.2 35.9 21.4 50 8.0 WNW 9 11 5 6 1007.2 1007.2 0.0
07/08:30am 32.2 35.4 21.7 54 7.1 WSW 7 11 4 6 1007.6 1007.6 0.0
07/08:00am 31.2 34.0 20.8 54 6.9 SW 7 11 4 6 1007.8 1007.8 0.0
07/07:30am 30.4 33.4 20.9 56 6.3 SSW 6 7 3 4 1007.4 1007.4 0.0
07/07:00am 29.9 32.4 21.0 59 5.9 W 9 13 5 7 1007.0 1007.0 0.0
07/06:30am 29.4 31.7 22.1 65 4.9 WNW 13 17 7 9 1006.7 1006.7 0.0
07/06:00am 29.6 33.5 22.6 66 4.8 E 6 17 3 9 1006.4 1006.4 0.0
07/05:30am 28.8 34.1 25.2 81 2.5 ESE 7 9 4 5 1006.6 1006.6 0.0
07/05:00am 28.5 33.9 25.1 82 2.4 NNW 6 7 3 4 1006.4 1006.4 0.0
07/04:30am 28.5 33.3 25.1 82 2.4 NW 9 11 5 6 1005.9 1005.9 0.0
07/04:00am 28.4 33.1 25.0 82 2.4 NW 9 11 5 6 1005.9 1005.9 0.0
07/03:30am 29.5 35.8 24.8 76 3.3 CALM 0 2 0 1 1005.4 1005.4 0.0
07/03:00am 29.2 34.3 24.7 76 3.2 NW 6 9 3 5 1005.2 1005.2 0.0
07/02:30am 29.4 34.7 24.9 77 3.2 NW 6 7 3 4 1005.4 1005.4 0.0
07/02:00am 29.6 34.7 24.9 76 3.3 NW 7 9 4 5 1005.6 1005.6 0.0
07/01:30am 29.9 33.8 24.8 74 3.6 NW 13 15 7 8 1006.0 1006.0 0.0
07/01:00am 29.7 34.3 24.8 75 3.4 N 9 9 5 5 1005.9 1005.9 0.0
07/12:30am 29.8 34.6 24.4 73 3.8 N 7 7 4 4 1006.0 1006.0 0.0
07/12:00am 30.2 34.7 24.6 72 3.9 N 9 11 5 6 1005.9 1005.9 0.0
 
Date/Time
WST
Temp
°C
App
Temp
°C
Dew
Point
°C
Rel
Hum
%
Delta-T
°C
Wind Press
QNH
hPa
Press
MSL
hPa
Rain since
9am
mm
Dir  Spd
km/h
Gust
km/h
Spd
kts
Gust
kts
06/11:30pm 29.6 35.6 24.2 72 3.8 CALM 0 0 0 0 1005.9 1005.9 0.0
06/11:00pm 29.7 34.6 24.3 73 3.8 N 6 7 3 4 1005.7 1005.7 0.0
06/10:30pm 30.0 34.8 24.4 72 3.9 NNW 7 11 4 6 1005.6 1005.6 0.0
06/10:00pm 30.1 34.7 24.7 73 3.8 NW 9 13 5 7 1005.3 1005.3 0.0
06/09:30pm 30.1 35.4 24.9 73 3.6 WNW 6 13 3 7 1005.3 1005.3 0.0
06/09:00pm 30.1 34.6 24.0 70 4.2 WSW 7 11 4 6 1005.4 1005.4 0.0
06/08:30pm 30.3 31.2 24.0 69 4.4 N 26 35 14 19 1004.9 1004.9 0.0
06/08:00pm 30.2 29.8 24.1 70 4.2 N 33 44 18 24 1004.5 1004.5 0.0
06/07:30pm 30.3 29.9 24.7 72 3.9 N 35 48 19 26 1004.1 1004.1 0.0
06/07:00pm 30.4 30.3 24.5 70 4.1 N 33 43 18 23 1003.3 1003.3 0.0
06/06:30pm 30.9 31.2 24.8 70 4.3 NNE 32 46 17 25 1003.1 1003.1 0.0
06/06:00pm 31.2 32.0 25.1 70 4.3 N 30 44 16 24 1002.6 1002.6 0.0
06/05:30pm 32.9 34.3 25.4 64 5.3 N 28 37 15 20 1002.2 1002.2 0.0
06/05:00pm 35.5 37.7 24.8 54 7.6 NNE 22 30 12 16 1001.6 1001.6 0.0
06/04:30pm 37.7 38.3 21.4 39 11.1 NNE 20 26 11 14 1001.5 1001.5 0.0
06/04:00pm 38.4 41.1 20.7 36 12.1 WNW 7 17 4 9 1001.4 1001.4 0.0
06/03:30pm 38.8 40.4 19.1 31 13.1 WSW 9 13 5 7 1001.6 1001.6 0.0
06/03:00pm 38.4 39.5 18.8 32 13.0 SSE 11 15 6 8 1001.8 1001.8 0.0
06/02:30pm 38.7 40.2 19.0 31 13.1 SSE 9 13 5 7 1002.1 1002.1 0.0
06/02:00pm 38.0 39.3 19.4 33 12.4 SSE 11 17 6 9 1002.3 1002.3 0.0
06/01:30pm 37.9 40.2 20.7 36 11.7 SSW 9 17 5 9 1002.7 1002.7 0.0
06/01:00pm 37.1 39.3 19.5 35 11.8 NW 7 15 4 8 1002.9 1002.9 0.0
06/12:30pm 37.1 38.0 20.0 37 11.5 WNW 15 26 8 14 1003.3 1003.3 0.0
06/12:00pm 37.4 38.2 19.8 35 11.8 WNW 15 22 8 12 1003.7 1003.7 0.0
06/11:30am 36.5 38.7 21.1 40 10.5 NW 11 20 6 11 1004.3 1004.3 0.0
06/11:00am 35.1 36.7 21.4 45 9.3 NW 15 24 8 13 1004.8 1004.8 0.0
06/10:30am 34.2 36.2 22.3 50 8.2 NW 15 24 8 13 1005.5 1005.5 0.0
06/10:00am 33.1 35.2 23.7 57 6.6 W 19 26 10 14 1005.8 1005.8 0.0
06/09:30am 31.9 36.0 24.5 65 5.2 W 11 17 6 9 1007.1 1007.1 0.0
06/09:00am 30.5 34.9 23.4 66 4.9 S 6 9 3 5 1008.3 1008.3 1.8
06/08:30am 29.4 33.9 24.0 72 3.7 SE 7 11 4 6 1008.7 1008.7 1.6
06/08:00am 28.9 33.2 23.6 73 3.7 SE 7 11 4 6 1008.7 1008.7 1.6
06/07:30am 27.5 32.1 24.1 82 2.3 ESE 7 11 4 6 1008.4 1008.4 1.6
06/07:00am 27.0 30.9 24.3 85 1.9 ESE 11 15 6 8 1008.1 1008.1 1.6
06/06:30am 26.9 29.4 23.8 83 2.1 E 17 22 9 12 1007.6 1007.6 1.6
06/06:00am 27.2 31.0 24.7 86 1.7 ESE 13 20 7 11 1007.2 1007.2 1.6
06/05:30am 27.0 32.8 23.9 83 2.1 CALM 0 4 0 2 1006.0 1006.0 1.6
06/05:00am 26.5 30.8 23.6 84 2.0 NW 7 11 4 6 1005.8 1005.8 1.6
06/04:30am 26.5 28.4 23.8 85 1.9 WNW 20 26 11 14 1005.0 1005.0 1.6
06/04:00am 26.5 28.7 24.0 86 1.7 NNW 19 30 10 16 1004.4 1004.4 1.6
06/03:30am 26.0 26.1 23.3 85 1.8 NNW 28 41 15 22 1003.9 1003.9 1.6
06/03:19am 25.5 27.1 23.2 87 1.6 NE 20 26 11 14 1005.2 1005.2 1.6
06/03:02am 27.8 28.0 22.1 71 3.8 SSW 24 39 13 21 1006.8 1006.8 0.0
06/03:00am 27.6 28.6 22.1 72 3.7 SW 20 39 11 21 1006.8 1006.8 0.0
06/02:30am 28.1 29.7 21.4 67 4.5 N 15 22 8 12 1005.1 1005.1 0.0
06/02:00am 26.7 27.1 21.7 74 3.3 N 22 35 12 19 1005.4 1005.4 0.0
06/01:30am 26.9 26.5 21.6 72 3.5 NNE 26 37 14 20 1005.1 1005.1 0.0
06/01:11am 27.1 25.8 21.4 71 3.8 ENE 30 48 16 26 1005.6 1005.6 0.0
06/01:09am 27.3 25.8 21.8 72 3.7 ENE 32 48 17 26 1005.8 1005.8 0.0
06/01:00am 27.5 26.3 21.5 70 4.0 ENE 30 46 16 25 1006.2 1006.2 0.0
06/12:59am 27.6 26.8 21.6 70 4.0 ENE 28 39 15 21 1006.4 1006.4 0.0
06/12:45am 27.8 28.1 21.6 69 4.1 ENE 22 35 12 19 1007.0 1007.0 0.0
06/12:35am 27.8 28.8 22.1 71 3.8 E 20 28 11 15 1006.8 1006.8 0.0
06/12:30am 27.8 29.1 22.3 72 3.7 E 19 28 10 15 1006.8 1006.8 0.0
06/12:00am 28.3 29.0 23.0 73 3.6 ENE 24 39 13 21 1006.6 1006.6 0.0
 
Date/Time
WST
Temp
°C
App
Temp
°C
Dew
Point
°C
Rel
Hum
%
Delta-T
°C
Wind Press
QNH
hPa
Press
MSL
hPa
Rain since
9am
mm
Dir  Spd
km/h
Gust
km/h
Spd
kts
Gust
kts
05/11:30pm 28.3 30.0 23.0 73 3.6 E 19 28 10 15 1006.1 1006.1 0.0
05/11:00pm 28.2 30.6 22.9 73 3.6 E 15 24 8 13 1005.4 1005.4 0.0
05/10:30pm 27.9 29.5 22.8 74 3.5 ESE 19 30 10 16 1005.9 1005.9 0.0
05/10:00pm 28.2 28.6 23.1 74 3.5 SE 26 30 14 16 1006.0 1006.0 0.0
05/09:30pm 28.9 29.3 21.7 65 4.8 ESE 22 28 12 15 1005.6 1005.6 0.0
05/09:00pm 28.9 29.6 22.9 70 4.1 E 24 30 13 16 1005.6 1005.6 0.0
05/08:30pm 29.5 27.3 21.4 61 5.4 SE 35 43 19 23 1005.8 1005.8 0.0
05/08:25pm 29.6 28.0 21.5 61 5.4 SE 32 43 17 23 1005.5 1005.5 0.0
05/08:00pm 31.2 30.7 20.8 54 7.0 ENE 24 30 13 16 1005.0 1005.0 0.0
05/07:30pm 32.7 33.6 23.3 57 6.5 NE 24 35 13 19 1003.7 1003.7 0.0
05/07:18pm 33.2 34.0 23.8 57 6.6 NE 26 35 14 19 1003.9 1003.9 0.0
05/07:08pm 33.6 35.0 24.8 60 6.2 ENE 26 37 14 20 1003.8 1003.8 0.0
05/07:00pm 33.6 34.9 25.3 62 5.9 E 28 35 15 19 1003.6 1003.6 0.0
05/06:30pm 34.7 38.4 25.2 57 6.8 N 15 24 8 13 1002.5 1002.5 0.0
05/06:00pm 34.6 37.5 25.4 59 6.6 N 20 32 11 17 1001.1 1001.1 0.0
05/05:30pm 34.9 37.4 25.4 58 6.8 NNE 22 35 12 19 1000.7 1000.7 0.0
05/05:00pm 36.0 38.6 25.5 54 7.5 N 22 35 12 19 1001.3 1001.3 0.0
05/04:30pm 36.5 37.9 26.0 55 7.6 N 30 41 16 22 1000.5 1000.5 0.0
05/04:00pm 37.0 37.1 25.5 51 8.3 N 35 46 19 25 1000.5 1000.5 0.0
05/03:30pm 37.9 38.4 24.6 46 9.4 N 30 46 16 25 1000.2 1000.2 0.0
05/03:00pm 38.8 39.4 24.7 44 10.1 N 30 39 16 21 1000.3 1000.3 0.0
05/02:30pm 40.7 40.6 20.8 32 13.6 N 22 37 12 20 1000.4 1000.4 0.0
05/02:00pm 41.6 41.8 19.4 27 15.0 WNW 17 28 9 15 1001.1 1001.1 0.0
05/01:30pm 41.3 42.1 19.1 27 14.9 NNW 13 17 7 9 1002.2 1002.2 0.0
05/01:00pm 40.1 42.4 20.7 32 13.3 NW 9 15 5 8 1003.0 1003.0 0.0
05/12:30pm 41.0 42.5 22.0 33 13.2 WNW 17 22 9 12 1003.5 1003.5 0.0
05/12:00pm 40.2 42.9 21.3 33 13.0 WNW 9 20 5 11 1004.2 1004.2 0.0
05/11:30am 38.8 40.8 22.3 38 11.4 W 15 20 8 11 1004.8 1004.8 0.0
05/11:00am 38.2 41.8 23.0 41 10.6 SW 9 15 5 8 1005.4 1005.4 0.0
05/10:30am 37.8 41.7 24.2 46 9.6 NW 11 15 6 8 1006.0 1006.0 0.0
05/10:00am 36.5 39.5 23.4 47 9.2 WNW 13 22 7 12 1006.3 1006.3 0.0
05/09:30am 36.4 39.8 24.0 49 8.7 WNW 13 19 7 10 1006.8 1006.8 0.0
05/09:00am 35.4 38.6 23.7 50 8.2 WNW 13 19 7 10 1007.3 1007.3 0.0
05/08:30am 34.8 37.5 23.5 52 7.9 NW 15 20 8 11 1007.5 1007.5 0.0
05/08:00am 34.6 37.7 24.2 54 7.3 WNW 15 22 8 12 1007.6 1007.6 0.0
05/07:30am 33.6 36.3 24.2 58 6.6 NW 17 22 9 12 1007.6 1007.6 0.0
05/07:00am 32.6 36.2 24.4 62 5.8 NW 13 17 7 9 1007.4 1007.4 0.0
05/06:30am 31.8 35.7 24.9 67 4.9 NNW 13 17 7 9 1007.2 1007.2 0.0

Other formats

Comma delimited format used in spreadsheet applications
http://www.bom.gov.au/fwo/IDW60801/IDW60801.95214.axf

JavaScript Object Notation format (JSON) in row-major order
http://www.bom.gov.au/fwo/IDW60801/IDW60801.95214.json

Data quality

Most of these data are generated automatically and are frequently updated. Quality checks on data are not normally performed. It is possible for incorrect values to appear. Refer to information at About Latest Weather Observations and please check the disclaimer before using these data.